sensor_id;sensor_type;location;lat;lon;timestamp;pressure;altitude;pressure_sealevel;temperature;humidity
1472;BME280;963;42.644;23.336;2023-07-29T00:00:31;94036.19;;;22.24;49.32
1472;BME280;963;42.644;23.336;2023-07-29T00:02:57;94065.97;;;22.26;49.54
1472;BME280;963;42.644;23.336;2023-07-29T00:05:22;94057.09;;;22.16;50.06
1472;BME280;963;42.644;23.336;2023-07-29T00:07:47;94074.78;;;22.13;50.36
1472;BME280;963;42.644;23.336;2023-07-29T00:10:13;94050.59;;;22.04;50.85
1472;BME280;963;42.644;23.336;2023-07-29T00:12:38;94039.34;;;21.97;50.49
1472;BME280;963;42.644;23.336;2023-07-29T00:15:04;94058.94;;;22.06;50.77
1472;BME280;963;42.644;23.336;2023-07-29T00:17:29;94063.13;;;22.07;51.07
1472;BME280;963;42.644;23.336;2023-07-29T00:19:55;94071.91;;;22.08;50.83
1472;BME280;963;42.644;23.336;2023-07-29T00:22:20;94038.38;;;22.03;50.80
1472;BME280;963;42.644;23.336;2023-07-29T00:24:51;94060.78;;;22.09;50.63
1472;BME280;963;42.644;23.336;2023-07-29T00:27:18;94061.19;;;22.08;51.11
1472;BME280;963;42.644;23.336;2023-07-29T00:29:43;94039.88;;;22.04;51.14
1472;BME280;963;42.644;23.336;2023-07-29T00:32:09;94041.28;;;21.96;50.91
1472;BME280;963;42.644;23.336;2023-07-29T00:34:34;94048.75;;;22.01;51.38
1472;BME280;963;42.644;23.336;2023-07-29T00:37:00;94037.94;;;21.92;51.25
1472;BME280;963;42.644;23.336;2023-07-29T00:39:25;94049.63;;;21.98;51.83
1472;BME280;963;42.644;23.336;2023-07-29T00:41:50;94044.81;;;21.93;51.84
1472;BME280;963;42.644;23.336;2023-07-29T00:44:16;94040.28;;;21.90;52.51
1472;BME280;963;42.644;23.336;2023-07-29T00:46:42;94047.69;;;21.86;52.61
1472;BME280;963;42.644;23.336;2023-07-29T00:49:08;94045.25;;;21.79;52.81
1472;BME280;963;42.644;23.336;2023-07-29T00:51:34;94052.41;;;21.82;52.94
1472;BME280;963;42.644;23.336;2023-07-29T00:54:00;94042.13;;;21.80;52.96
1472;BME280;963;42.644;23.336;2023-07-29T00:56:25;94044.81;;;21.80;53.30
1472;BME280;963;42.644;23.336;2023-07-29T00:58:51;94046.34;;;21.69;53.49
1472;BME280;963;42.644;23.336;2023-07-29T01:01:21;94037.97;;;21.67;52.79
1472;BME280;963;42.644;23.336;2023-07-29T01:03:47;94033.72;;;21.57;53.18
1472;BME280;963;42.644;23.336;2023-07-29T01:06:22;94037.47;;;21.59;53.25
1472;BME280;963;42.644;23.336;2023-07-29T01:09:20;94037.78;;;21.61;53.04
1472;BME280;963;42.644;23.336;2023-07-29T01:12:33;94032.09;;;21.59;53.16
1472;BME280;963;42.644;23.336;2023-07-29T01:17:23;94029.88;;;21.58;54.13
1472;BME280;963;42.644;23.336;2023-07-29T01:22:21;94039.59;;;21.51;54.01
1472;BME280;963;42.644;23.336;2023-07-29T01:24:48;94033.06;;;21.52;54.08
1472;BME280;963;42.644;23.336;2023-07-29T01:27:14;94046.13;;;21.50;54.18
1472;BME280;963;42.644;23.336;2023-07-29T01:29:40;94024.28;;;21.39;54.58
1472;BME280;963;42.644;23.336;2023-07-29T01:32:10;94041.63;;;21.47;54.13
1472;BME280;963;42.644;23.336;2023-07-29T01:34:56;94035.72;;;21.40;53.98
1472;BME280;963;42.644;23.336;2023-07-29T01:37:26;94020.13;;;21.26;54.51
1472;BME280;963;42.644;23.336;2023-07-29T01:39:55;94030.91;;;21.22;53.88
1472;BME280;963;42.644;23.336;2023-07-29T01:42:22;94026.59;;;21.12;54.13
1472;BME280;963;42.644;23.336;2023-07-29T01:44:48;94033.75;;;21.02;54.27
1472;BME280;963;42.644;23.336;2023-07-29T01:47:14;94033.84;;;20.99;54.43
1472;BME280;963;42.644;23.336;2023-07-29T01:49:39;94028.72;;;20.91;54.73
1472;BME280;963;42.644;23.336;2023-07-29T01:52:04;94022.38;;;20.85;55.17
1472;BME280;963;42.644;23.336;2023-07-29T01:54:30;94033.84;;;20.86;55.30
1472;BME280;963;42.644;23.336;2023-07-29T01:56:55;94054.78;;;20.87;54.81
1472;BME280;963;42.644;23.336;2023-07-29T01:59:21;94044.84;;;20.88;54.73
1472;BME280;963;42.644;23.336;2023-07-29T02:01:46;94027.00;;;20.85;55.16
1472;BME280;963;42.644;23.336;2023-07-29T02:04:12;94027.41;;;20.83;54.62
1472;BME280;963;42.644;23.336;2023-07-29T02:06:37;94025.25;;;20.78;54.57
1472;BME280;963;42.644;23.336;2023-07-29T02:09:02;94028.66;;;20.79;54.50
1472;BME280;963;42.644;23.336;2023-07-29T02:11:29;94028.59;;;20.82;54.60
1472;BME280;963;42.644;23.336;2023-07-29T02:13:55;94031.25;;;20.82;54.72
1472;BME280;963;42.644;23.336;2023-07-29T02:16:21;94034.16;;;20.88;54.66
1472;BME280;963;42.644;23.336;2023-07-29T02:18:48;94024.75;;;20.83;55.13
1472;BME280;963;42.644;23.336;2023-07-29T02:21:14;94027.31;;;20.87;55.11
1472;BME280;963;42.644;23.336;2023-07-29T02:23:40;94037.69;;;20.85;55.70
1472;BME280;963;42.644;23.336;2023-07-29T02:26:05;94037.34;;;20.83;55.58
1472;BME280;963;42.644;23.336;2023-07-29T02:28:31;94044.94;;;20.84;55.72
1472;BME280;963;42.644;23.336;2023-07-29T02:33:40;94035.03;;;20.56;56.05
1472;BME280;963;42.644;23.336;2023-07-29T02:36:06;94055.88;;;20.16;56.70
1472;BME280;963;42.644;23.336;2023-07-29T02:38:31;94041.53;;;20.39;55.25
1472;BME280;963;42.644;23.336;2023-07-29T02:40:57;94050.25;;;20.26;55.61
1472;BME280;963;42.644;23.336;2023-07-29T02:43:22;94041.31;;;20.33;55.42
1472;BME280;963;42.644;23.336;2023-07-29T02:45:48;94022.41;;;20.11;55.70
1472;BME280;963;42.644;23.336;2023-07-29T02:48:13;94036.06;;;20.29;55.60
1472;BME280;963;42.644;23.336;2023-07-29T02:50:38;94048.44;;;20.23;56.15
1472;BME280;963;42.644;23.336;2023-07-29T02:53:04;94033.28;;;20.33;56.30
1472;BME280;963;42.644;23.336;2023-07-29T02:55:29;94036.38;;;20.32;56.41
1472;BME280;963;42.644;23.336;2023-07-29T02:57:55;94028.88;;;20.26;56.31
1472;BME280;963;42.644;23.336;2023-07-29T03:00:20;94025.69;;;20.32;56.45
1472;BME280;963;42.644;23.336;2023-07-29T03:02:45;94033.03;;;20.44;56.58
1472;BME280;963;42.644;23.336;2023-07-29T03:05:11;94063.78;;;20.52;56.04
1472;BME280;963;42.644;23.336;2023-07-29T03:07:36;94040.22;;;20.47;56.19
1472;BME280;963;42.644;23.336;2023-07-29T03:10:02;94049.75;;;20.48;56.20
1472;BME280;963;42.644;23.336;2023-07-29T03:12:27;94063.34;;;20.53;56.35
1472;BME280;963;42.644;23.336;2023-07-29T03:14:53;94079.81;;;20.52;56.57
1472;BME280;963;42.644;23.336;2023-07-29T03:17:18;94062.16;;;20.54;56.35
1472;BME280;963;42.644;23.336;2023-07-29T03:19:43;94064.09;;;20.54;56.71
1472;BME280;963;42.644;23.336;2023-07-29T03:22:09;94065.59;;;20.55;56.50
1472;BME280;963;42.644;23.336;2023-07-29T03:24:34;94064.00;;;20.57;56.76
1472;BME280;963;42.644;23.336;2023-07-29T03:26:59;94045.06;;;20.52;56.68
1472;BME280;963;42.644;23.336;2023-07-29T03:29:25;94068.69;;;20.53;57.20
1472;BME280;963;42.644;23.336;2023-07-29T03:31:50;94058.41;;;20.52;57.41
1472;BME280;963;42.644;23.336;2023-07-29T03:34:16;94055.19;;;20.44;57.15
1472;BME280;963;42.644;23.336;2023-07-29T03:36:41;94069.53;;;20.50;57.68
1472;BME280;963;42.644;23.336;2023-07-29T03:39:07;94062.03;;;20.45;57.63
1472;BME280;963;42.644;23.336;2023-07-29T03:41:33;94061.09;;;20.52;57.50
1472;BME280;963;42.644;23.336;2023-07-29T03:43:58;94074.78;;;20.54;57.58
1472;BME280;963;42.644;23.336;2023-07-29T03:46:24;94052.09;;;20.46;57.61
1472;BME280;963;42.644;23.336;2023-07-29T03:48:50;94059.59;;;20.51;57.38
1472;BME280;963;42.644;23.336;2023-07-29T03:51:15;94057.03;;;20.47;57.49
1472;BME280;963;42.644;23.336;2023-07-29T03:53:40;94062.59;;;20.53;57.74
1472;BME280;963;42.644;23.336;2023-07-29T03:56:07;94068.78;;;20.50;57.68
1472;BME280;963;42.644;23.336;2023-07-29T03:58:32;94050.84;;;20.50;56.57
1472;BME280;963;42.644;23.336;2023-07-29T04:00:58;94054.69;;;20.49;55.59
1472;BME280;963;42.644;23.336;2023-07-29T04:03:23;94050.97;;;20.59;55.58
1472;BME280;963;42.644;23.336;2023-07-29T04:05:48;94063.91;;;20.61;54.83
1472;BME280;963;42.644;23.336;2023-07-29T04:08:14;94049.16;;;20.40;54.99
1472;BME280;963;42.644;23.336;2023-07-29T04:10:39;94052.00;;;20.49;55.08
1472;BME280;963;42.644;23.336;2023-07-29T04:13:05;94069.44;;;20.54;55.00
1472;BME280;963;42.644;23.336;2023-07-29T04:15:30;94059.59;;;20.51;54.82
1472;BME280;963;42.644;23.336;2023-07-29T04:17:56;94068.03;;;20.49;55.25
1472;BME280;963;42.644;23.336;2023-07-29T04:20:21;94063.66;;;20.39;55.65
1472;BME280;963;42.644;23.336;2023-07-29T04:22:46;94065.94;;;20.41;55.43
1472;BME280;963;42.644;23.336;2023-07-29T04:25:12;94084.47;;;20.32;55.28
1472;BME280;963;42.644;23.336;2023-07-29T04:27:38;94066.13;;;20.50;54.37
1472;BME280;963;42.644;23.336;2023-07-29T04:30:04;94058.84;;;20.50;53.87
1472;BME280;963;42.644;23.336;2023-07-29T04:32:29;94066.97;;;20.47;54.02
1472;BME280;963;42.644;23.336;2023-07-29T04:34:55;94055.09;;;20.48;53.86
1472;BME280;963;42.644;23.336;2023-07-29T04:37:20;94077.13;;;20.52;54.17
1472;BME280;963;42.644;23.336;2023-07-29T04:39:46;94070.00;;;20.62;54.15
1472;BME280;963;42.644;23.336;2023-07-29T04:42:12;94075.75;;;20.60;54.09
1472;BME280;963;42.644;23.336;2023-07-29T04:44:37;94085.63;;;20.63;53.97
1472;BME280;963;42.644;23.336;2023-07-29T04:47:02;94070.41;;;20.60;54.04
1472;BME280;963;42.644;23.336;2023-07-29T04:49:28;94068.72;;;20.66;53.86
1472;BME280;963;42.644;23.336;2023-07-29T04:51:53;94075.06;;;20.72;54.11
1472;BME280;963;42.644;23.336;2023-07-29T04:54:19;94077.31;;;20.74;53.83
1472;BME280;963;42.644;23.336;2023-07-29T04:56:46;94083.72;;;20.76;54.50
1472;BME280;963;42.644;23.336;2023-07-29T04:59:11;94094.00;;;20.78;54.83
1472;BME280;963;42.644;23.336;2023-07-29T05:01:38;94067.34;;;20.74;54.72
1472;BME280;963;42.644;23.336;2023-07-29T05:04:04;94088.28;;;20.92;54.61
1472;BME280;963;42.644;23.336;2023-07-29T05:06:29;94106.91;;;20.96;54.60
1472;BME280;963;42.644;23.336;2023-07-29T05:08:57;94085.63;;;20.92;54.60
1472;BME280;963;42.644;23.336;2023-07-29T05:11:22;94091.50;;;21.00;54.64
1472;BME280;963;42.644;23.336;2023-07-29T05:13:48;94093.56;;;21.08;54.95
1472;BME280;963;42.644;23.336;2023-07-29T05:16:13;94081.59;;;21.13;54.04
1472;BME280;963;42.644;23.336;2023-07-29T05:18:39;94087.44;;;21.24;54.08
1472;BME280;963;42.644;23.336;2023-07-29T05:21:04;94098.91;;;21.37;53.80
1472;BME280;963;42.644;23.336;2023-07-29T05:23:30;94092.38;;;21.38;53.59
1472;BME280;963;42.644;23.336;2023-07-29T05:25:55;94104.25;;;21.50;53.47
1472;BME280;963;42.644;23.336;2023-07-29T05:28:20;94095.69;;;21.42;54.02
1472;BME280;963;42.644;23.336;2023-07-29T05:30:46;94106.38;;;21.42;54.44
1472;BME280;963;42.644;23.336;2023-07-29T05:33:11;94089.78;;;21.47;54.05
1472;BME280;963;42.644;23.336;2023-07-29T05:35:37;94100.84;;;21.62;53.42
1472;BME280;963;42.644;23.336;2023-07-29T05:38:02;94111.03;;;21.67;53.90
1472;BME280;963;42.644;23.336;2023-07-29T05:40:29;94103.53;;;21.75;53.34
1472;BME280;963;42.644;23.336;2023-07-29T05:42:54;94112.19;;;21.79;53.20
1472;BME280;963;42.644;23.336;2023-07-29T05:45:19;94120.00;;;21.86;53.03
1472;BME280;963;42.644;23.336;2023-07-29T05:47:45;94112.09;;;21.95;52.60
1472;BME280;963;42.644;23.336;2023-07-29T05:50:10;94117.13;;;21.93;52.05
1472;BME280;963;42.644;23.336;2023-07-29T05:52:36;94116.28;;;21.96;52.33
1472;BME280;963;42.644;23.336;2023-07-29T05:55:02;94110.81;;;22.00;52.56
1472;BME280;963;42.644;23.336;2023-07-29T05:57:28;94113.34;;;21.91;52.78
1472;BME280;963;42.644;23.336;2023-07-29T05:59:53;94115.09;;;21.97;52.33
1472;BME280;963;42.644;23.336;2023-07-29T06:02:18;94121.53;;;22.12;51.98
1472;BME280;963;42.644;23.336;2023-07-29T06:04:44;94116.16;;;21.87;52.71
1472;BME280;963;42.644;23.336;2023-07-29T06:07:09;94109.44;;;22.08;51.87
1472;BME280;963;42.644;23.336;2023-07-29T06:09:35;94102.56;;;21.56;52.80
1472;BME280;963;42.644;23.336;2023-07-29T06:12:00;94097.09;;;21.85;52.79
1472;BME280;963;42.644;23.336;2023-07-29T06:14:26;94106.84;;;22.04;51.64
1472;BME280;963;42.644;23.336;2023-07-29T06:16:51;94114.22;;;22.26;51.05
1472;BME280;963;42.644;23.336;2023-07-29T06:19:20;94110.34;;;22.27;51.04
1472;BME280;963;42.644;23.336;2023-07-29T06:21:46;94101.47;;;21.92;51.33
1472;BME280;963;42.644;23.336;2023-07-29T06:24:11;94101.59;;;22.13;50.91
1472;BME280;963;42.644;23.336;2023-07-29T06:26:37;94098.56;;;22.37;50.32
1472;BME280;963;42.644;23.336;2023-07-29T06:29:02;94095.88;;;22.37;50.32
1472;BME280;963;42.644;23.336;2023-07-29T06:31:27;94099.31;;;22.59;50.42
1472;BME280;963;42.644;23.336;2023-07-29T06:33:53;94094.59;;;22.63;50.40
1472;BME280;963;42.644;23.336;2023-07-29T06:36:20;94088.28;;;22.57;50.88
1472;BME280;963;42.644;23.336;2023-07-29T06:38:45;94094.38;;;22.70;50.10
1472;BME280;963;42.644;23.336;2023-07-29T06:41:10;94090.25;;;22.78;50.25
1472;BME280;963;42.644;23.336;2023-07-29T06:43:36;94094.59;;;22.98;50.01
1472;BME280;963;42.644;23.336;2023-07-29T06:46:01;94085.91;;;22.94;49.78
1472;BME280;963;42.644;23.336;2023-07-29T06:48:27;94079.81;;;22.93;50.10
1472;BME280;963;42.644;23.336;2023-07-29T06:50:52;94073.44;;;23.00;50.65
1472;BME280;963;42.644;23.336;2023-07-29T06:53:17;94080.53;;;22.94;50.97
1472;BME280;963;42.644;23.336;2023-07-29T06:55:44;94077.81;;;23.06;50.14
1472;BME280;963;42.644;23.336;2023-07-29T06:58:10;94076.06;;;23.13;50.15
1472;BME280;963;42.644;23.336;2023-07-29T07:00:36;94088.69;;;23.34;49.50
1472;BME280;963;42.644;23.336;2023-07-29T07:03:01;94078.75;;;23.44;49.38
1472;BME280;963;42.644;23.336;2023-07-29T07:05:26;94070.75;;;23.53;49.00
1472;BME280;963;42.644;23.336;2023-07-29T07:07:52;94084.22;;;23.62;49.60
1472;BME280;963;42.644;23.336;2023-07-29T07:10:17;94078.88;;;23.40;49.27
1472;BME280;963;42.644;23.336;2023-07-29T07:12:43;94093.41;;;23.52;48.76
1472;BME280;963;42.644;23.336;2023-07-29T07:15:08;94077.81;;;23.59;48.72
1472;BME280;963;42.644;23.336;2023-07-29T07:17:34;94076.78;;;23.66;49.26
1472;BME280;963;42.644;23.336;2023-07-29T07:19:59;94085.72;;;23.63;49.16
1472;BME280;963;42.644;23.336;2023-07-29T07:22:25;94075.31;;;23.74;48.84
1472;BME280;963;42.644;23.336;2023-07-29T07:24:50;94067.09;;;23.68;48.50
1472;BME280;963;42.644;23.336;2023-07-29T07:27:15;94074.63;;;23.83;47.89
1472;BME280;963;42.644;23.336;2023-07-29T07:29:41;94064.06;;;23.97;47.92
1472;BME280;963;42.644;23.336;2023-07-29T07:32:06;94060.19;;;23.98;47.46
1472;BME280;963;42.644;23.336;2023-07-29T07:34:32;94084.09;;;24.15;47.48
1472;BME280;963;42.644;23.336;2023-07-29T07:36:58;94073.38;;;24.24;47.54
1472;BME280;963;42.644;23.336;2023-07-29T07:39:24;94055.00;;;24.22;48.13
1472;BME280;963;42.644;23.336;2023-07-29T07:41:49;94065.66;;;24.35;47.29
1472;BME280;963;42.644;23.336;2023-07-29T07:44:15;94062.81;;;24.39;47.06
1472;BME280;963;42.644;23.336;2023-07-29T07:46:43;94066.53;;;24.50;46.58
1472;BME280;963;42.644;23.336;2023-07-29T07:49:08;94074.59;;;24.50;46.59
1472;BME280;963;42.644;23.336;2023-07-29T07:51:33;94075.84;;;24.58;46.37
1472;BME280;963;42.644;23.336;2023-07-29T07:53:59;94081.47;;;24.51;46.16
1472;BME280;963;42.644;23.336;2023-07-29T07:56:24;94070.59;;;24.64;45.28
1472;BME280;963;42.644;23.336;2023-07-29T07:58:49;94080.31;;;24.61;46.48
1472;BME280;963;42.644;23.336;2023-07-29T08:01:15;94067.44;;;24.75;46.21
1472;BME280;963;42.644;23.336;2023-07-29T08:03:40;94068.78;;;24.79;45.64
1472;BME280;963;42.644;23.336;2023-07-29T08:06:06;94071.94;;;24.96;46.09
1472;BME280;963;42.644;23.336;2023-07-29T08:08:31;94062.94;;;25.08;45.76
1472;BME280;963;42.644;23.336;2023-07-29T08:10:57;94061.47;;;25.07;45.32
1472;BME280;963;42.644;23.336;2023-07-29T08:13:23;94078.50;;;24.77;46.35
1472;BME280;963;42.644;23.336;2023-07-29T08:15:51;94066.84;;;25.07;46.57
1472;BME280;963;42.644;23.336;2023-07-29T08:18:17;94067.69;;;25.22;46.56
1472;BME280;963;42.644;23.336;2023-07-29T08:20:56;94067.84;;;25.19;47.47
1472;BME280;963;42.644;23.336;2023-07-29T08:23:28;94099.25;;;25.40;47.03
1472;BME280;963;42.644;23.336;2023-07-29T08:25:56;94073.34;;;25.43;46.22
1472;BME280;963;42.644;23.336;2023-07-29T08:28:26;94062.34;;;25.13;46.39
1472;BME280;963;42.644;23.336;2023-07-29T08:30:52;94072.16;;;25.44;46.13
1472;BME280;963;42.644;23.336;2023-07-29T08:33:17;94074.50;;;25.51;45.60
1472;BME280;963;42.644;23.336;2023-07-29T08:35:43;94069.56;;;25.68;45.34
1472;BME280;963;42.644;23.336;2023-07-29T08:38:08;94068.47;;;25.74;45.24
1472;BME280;963;42.644;23.336;2023-07-29T08:40:35;94075.03;;;25.82;45.88
1472;BME280;963;42.644;23.336;2023-07-29T08:43:05;94076.19;;;25.91;44.17
1472;BME280;963;42.644;23.336;2023-07-29T08:45:34;94059.94;;;26.00;43.76
1472;BME280;963;42.644;23.336;2023-07-29T08:48:02;94050.66;;;26.01;43.41
1472;BME280;963;42.644;23.336;2023-07-29T08:50:29;94072.66;;;26.08;44.15
1472;BME280;963;42.644;23.336;2023-07-29T08:52:56;94056.41;;;26.17;43.43
1472;BME280;963;42.644;23.336;2023-07-29T08:55:22;94052.50;;;26.18;42.86
1472;BME280;963;42.644;23.336;2023-07-29T08:57:48;94065.19;;;26.27;42.93
1472;BME280;963;42.644;23.336;2023-07-29T09:00:13;94051.06;;;26.32;42.04
1472;BME280;963;42.644;23.336;2023-07-29T09:02:39;94047.59;;;26.41;41.62
1472;BME280;963;42.644;23.336;2023-07-29T09:05:05;94053.09;;;26.46;40.73
1472;BME280;963;42.644;23.336;2023-07-29T09:07:30;94038.03;;;26.31;41.30
1472;BME280;963;42.644;23.336;2023-07-29T09:09:58;94048.81;;;26.40;41.08
1472;BME280;963;42.644;23.336;2023-07-29T09:12:24;94042.69;;;26.54;40.69
1472;BME280;963;42.644;23.336;2023-07-29T09:14:53;94041.88;;;26.63;39.31
1472;BME280;963;42.644;23.336;2023-07-29T09:17:20;94036.69;;;26.74;39.08
1472;BME280;963;42.644;23.336;2023-07-29T09:19:50;94038.75;;;26.79;39.17
1472;BME280;963;42.644;23.336;2023-07-29T09:22:20;94035.22;;;26.88;39.84
1472;BME280;963;42.644;23.336;2023-07-29T09:24:46;94016.41;;;26.93;39.29
1472;BME280;963;42.644;23.336;2023-07-29T09:27:28;94014.56;;;26.99;38.80
1472;BME280;963;42.644;23.336;2023-07-29T09:29:55;94011.69;;;27.18;38.77
1472;BME280;963;42.644;23.336;2023-07-29T09:32:22;94030.50;;;27.27;39.15
1472;BME280;963;42.644;23.336;2023-07-29T09:34:48;94005.63;;;27.23;37.24
1472;BME280;963;42.644;23.336;2023-07-29T09:37:20;94026.13;;;27.29;36.51
1472;BME280;963;42.644;23.336;2023-07-29T09:39:46;94025.38;;;27.29;37.25
1472;BME280;963;42.644;23.336;2023-07-29T09:42:17;94015.69;;;27.37;35.76
1472;BME280;963;42.644;23.336;2023-07-29T09:44:43;94024.44;;;27.32;37.44
1472;BME280;963;42.644;23.336;2023-07-29T09:47:09;94014.03;;;27.25;37.64
1472;BME280;963;42.644;23.336;2023-07-29T09:49:35;94013.34;;;27.30;37.94
1472;BME280;963;42.644;23.336;2023-07-29T09:52:01;94019.59;;;27.36;38.04
1472;BME280;963;42.644;23.336;2023-07-29T09:54:30;94012.84;;;27.46;37.40
1472;BME280;963;42.644;23.336;2023-07-29T09:56:56;94015.66;;;27.52;36.83
1472;BME280;963;42.644;23.336;2023-07-29T09:59:23;93988.16;;;27.53;37.25
1472;BME280;963;42.644;23.336;2023-07-29T10:01:49;93990.47;;;27.75;37.47
1472;BME280;963;42.644;23.336;2023-07-29T10:04:15;93995.03;;;27.69;36.92
1472;BME280;963;42.644;23.336;2023-07-29T10:06:43;93994.84;;;27.73;36.15
1472;BME280;963;42.644;23.336;2023-07-29T10:09:11;93978.91;;;27.75;36.50
1472;BME280;963;42.644;23.336;2023-07-29T10:11:37;93987.84;;;28.01;36.16
1472;BME280;963;42.644;23.336;2023-07-29T10:14:03;94003.06;;;28.19;36.20
1472;BME280;963;42.644;23.336;2023-07-29T10:16:28;93989.50;;;28.33;36.43
1472;BME280;963;42.644;23.336;2023-07-29T10:18:55;93992.09;;;28.48;35.68
1472;BME280;963;42.644;23.336;2023-07-29T10:21:22;93973.00;;;28.57;35.57
1472;BME280;963;42.644;23.336;2023-07-29T10:23:49;93976.63;;;28.75;36.04
1472;BME280;963;42.644;23.336;2023-07-29T10:26:19;93974.66;;;28.49;35.42
1472;BME280;963;42.644;23.336;2023-07-29T10:28:47;93968.41;;;28.63;35.85
1472;BME280;963;42.644;23.336;2023-07-29T10:31:15;93964.28;;;28.68;35.55
1472;BME280;963;42.644;23.336;2023-07-29T10:33:41;93969.38;;;28.86;35.22
1472;BME280;963;42.644;23.336;2023-07-29T10:36:08;93955.66;;;28.95;34.91
1472;BME280;963;42.644;23.336;2023-07-29T10:38:34;93953.09;;;29.12;34.97
1472;BME280;963;42.644;23.336;2023-07-29T10:40:59;93963.97;;;29.18;34.39
1472;BME280;963;42.644;23.336;2023-07-29T10:43:33;93953.31;;;29.09;33.92
1472;BME280;963;42.644;23.336;2023-07-29T10:46:15;93955.56;;;28.84;33.99
1472;BME280;963;42.644;23.336;2023-07-29T10:48:44;93955.66;;;28.95;34.55
1472;BME280;963;42.644;23.336;2023-07-29T10:51:29;93948.50;;;29.24;34.49
1472;BME280;963;42.644;23.336;2023-07-29T10:54:00;93937.59;;;29.44;34.10
1472;BME280;963;42.644;23.336;2023-07-29T10:56:27;93928.22;;;29.45;32.91
1472;BME280;963;42.644;23.336;2023-07-29T11:01:56;93927.97;;;29.92;32.19
1472;BME280;963;42.644;23.336;2023-07-29T11:09:50;93923.94;;;30.46;32.28
1472;BME280;963;42.644;23.336;2023-07-29T11:12:45;93926.47;;;30.61;31.61
1472;BME280;963;42.644;23.336;2023-07-29T11:17:39;93923.53;;;30.82;31.76
1472;BME280;963;42.644;23.336;2023-07-29T11:20:06;93917.84;;;31.02;30.70
1472;BME280;963;42.644;23.336;2023-07-29T11:22:35;93920.56;;;31.13;30.92
1472;BME280;963;42.644;23.336;2023-07-29T11:25:00;93912.16;;;31.11;29.99
1472;BME280;963;42.644;23.336;2023-07-29T11:27:26;93911.22;;;31.25;29.53
1472;BME280;963;42.644;23.336;2023-07-29T11:30:00;93911.94;;;31.31;29.65
1472;BME280;963;42.644;23.336;2023-07-29T11:32:26;93919.34;;;31.36;29.37
1472;BME280;963;42.644;23.336;2023-07-29T11:34:51;93916.66;;;31.25;29.00
1472;BME280;963;42.644;23.336;2023-07-29T11:37:17;93918.09;;;31.37;30.18
1472;BME280;963;42.644;23.336;2023-07-29T11:39:44;93914.13;;;31.44;29.97
1472;BME280;963;42.644;23.336;2023-07-29T11:42:19;93906.94;;;31.63;29.78
1472;BME280;963;42.644;23.336;2023-07-29T11:44:45;93912.63;;;31.49;29.63
1472;BME280;963;42.644;23.336;2023-07-29T11:47:12;93901.56;;;31.30;29.85
1472;BME280;963;42.644;23.336;2023-07-29T11:49:41;93895.63;;;31.31;29.39
1472;BME280;963;42.644;23.336;2023-07-29T11:52:07;93901.50;;;31.52;30.02
1472;BME280;963;42.644;23.336;2023-07-29T11:54:37;93884.44;;;31.63;30.33
1472;BME280;963;42.644;23.336;2023-07-29T11:57:07;93892.34;;;31.61;29.73
1472;BME280;963;42.644;23.336;2023-07-29T11:59:34;93888.59;;;31.81;29.95
1472;BME280;963;42.644;23.336;2023-07-29T12:02:01;93887.28;;;31.93;30.10
1472;BME280;963;42.644;23.336;2023-07-29T12:04:29;93887.69;;;32.14;29.42
1472;BME280;963;42.644;23.336;2023-07-29T12:06:55;93887.59;;;32.36;29.07
1472;BME280;963;42.644;23.336;2023-07-29T12:09:21;93875.06;;;32.57;29.01
1472;BME280;963;42.644;23.336;2023-07-29T12:11:46;93879.91;;;32.76;29.37
1472;BME280;963;42.644;23.336;2023-07-29T12:14:12;93882.59;;;32.81;28.42
1472;BME280;963;42.644;23.336;2023-07-29T12:16:44;93864.41;;;32.95;27.68
1472;BME280;963;42.644;23.336;2023-07-29T12:19:12;93864.53;;;33.08;28.21
1472;BME280;963;42.644;23.336;2023-07-29T12:21:42;93869.66;;;33.17;28.12
1472;BME280;963;42.644;23.336;2023-07-29T12:24:08;93861.88;;;33.27;27.37
1472;BME280;963;42.644;23.336;2023-07-29T12:26:35;93885.09;;;33.09;27.48
1472;BME280;963;42.644;23.336;2023-07-29T12:29:11;93862.59;;;33.28;27.55
1472;BME280;963;42.644;23.336;2023-07-29T12:31:37;93868.41;;;33.43;28.01
1472;BME280;963;42.644;23.336;2023-07-29T12:34:03;93858.00;;;33.17;27.13
1472;BME280;963;42.644;23.336;2023-07-29T12:36:49;93856.03;;;33.17;27.19
1472;BME280;963;42.644;23.336;2023-07-29T12:39:22;93846.94;;;33.09;27.25
1472;BME280;963;42.644;23.336;2023-07-29T12:41:48;93848.00;;;33.25;27.03
1472;BME280;963;42.644;23.336;2023-07-29T12:44:14;93849.41;;;32.83;27.04
1472;BME280;963;42.644;23.336;2023-07-29T12:46:40;93870.22;;;33.10;27.17
1472;BME280;963;42.644;23.336;2023-07-29T12:49:05;93844.31;;;33.22;27.21
1472;BME280;963;42.644;23.336;2023-07-29T12:51:31;93839.22;;;33.38;27.11
1472;BME280;963;42.644;23.336;2023-07-29T12:53:57;93848.28;;;33.70;27.37
1472;BME280;963;42.644;23.336;2023-07-29T12:56:22;93835.50;;;33.84;26.71
1472;BME280;963;42.644;23.336;2023-07-29T12:58:47;93843.75;;;34.16;26.63
1472;BME280;963;42.644;23.336;2023-07-29T13:01:14;93858.94;;;34.30;25.97
1472;BME280;963;42.644;23.336;2023-07-29T13:03:43;93860.41;;;34.31;26.52
1472;BME280;963;42.644;23.336;2023-07-29T13:06:09;93851.25;;;34.47;26.05
1472;BME280;963;42.644;23.336;2023-07-29T13:08:34;93844.81;;;34.64;25.31
1472;BME280;963;42.644;23.336;2023-07-29T13:11:00;93867.75;;;34.74;25.40
1472;BME280;963;42.644;23.336;2023-07-29T13:13:25;93851.31;;;34.61;25.01
1472;BME280;963;42.644;23.336;2023-07-29T13:15:51;93845.88;;;34.61;24.89
1472;BME280;963;42.644;23.336;2023-07-29T13:18:16;93853.53;;;34.62;25.13
1472;BME280;963;42.644;23.336;2023-07-29T13:20:41;93854.81;;;34.61;24.83
1472;BME280;963;42.644;23.336;2023-07-29T13:23:07;93850.22;;;34.51;24.96
1472;BME280;963;42.644;23.336;2023-07-29T13:25:32;93838.00;;;34.38;25.57
1472;BME280;963;42.644;23.336;2023-07-29T13:27:58;93840.75;;;34.52;24.78
1472;BME280;963;42.644;23.336;2023-07-29T13:30:23;93847.56;;;34.45;24.76
1472;BME280;963;42.644;23.336;2023-07-29T13:32:48;93854.34;;;34.19;24.75
1472;BME280;963;42.644;23.336;2023-07-29T13:35:14;93834.75;;;34.02;24.90
1472;BME280;963;42.644;23.336;2023-07-29T13:37:39;93839.09;;;34.11;24.77